Observations for WASHINGTON NATIONAL, VA (DCA)

KDCA 220652Z 18008KT 10SM FEW040 FEW120 23/21 A3002 RMK AO2 SLP164 T02280206
KDCA 220552Z 20007KT 10SM FEW040 BKN120 23/21 A3003 RMK AO2 SLP169 T02330206 10244 20233 58009  
KDCA 220452Z 20012KT 10SM FEW040 BKN110 24/21 A3004 RMK AO2 SLP172 T02390206 402560200  
KDCA 220352Z 19010KT 10SM BKN120 24/21 A3005 RMK AO2 SLP177 T02390206   
KDCA 220252Z 19010KT 10SM BKN130 24/21 A3006 RMK AO2 SLP178 T02390206 51011 
KDCA 220152Z 19010KT 10SM FEW050 24/20 A3006 RMK AO2 SLP178 T02440200   
KDCA 220052Z 18009KT 10SM FEW040 24/21 A3004 RMK AO2 SLP172 T02390206   
KDCA 212352Z 19011KT 10SM FEW031 24/20 A3003 RMK AO2 SLP167 T02390200 10256 20228 57016 
KDCA 212252Z 18009KT 10SM SCT031 24/20 A3004 RMK AO2 SLP171 BINOVC T02390200
KDCA 212209Z 18010KT 10SM OVC031 25/21 A3006 RMK AO2 BINOVC T02500206
KDCA 212152Z 18009KT 10SM OVC029 26/20 A3006 RMK AO2 SLP179 BINOVC T02560200
KDCA 212052Z 18008KT 10SM OVC027 26/21 A3007 RMK AO2 SLP183 T02560206 56029 
KDCA 211952Z 19007KT 10SM BKN025 OVC030 24/20 A3010 RMK AO2 SLP191 T02440200
KDCA 211852Z 19007KT 10SM OVC023 23/19 A3013 RMK AO2 SLP201 T02330194   
KDCA 211752Z 19009KT 10SM OVC027 23/19 A3016 RMK AO2 SLP212 60028 T02280194 10228 20200 58023   
KDCA 211652Z 18008KT 10SM BKN015 OVC028 22/19 A3018 RMK AO2 SLP220 T02220194
KDCA 211630Z 18010KT 10SM SCT015 OVC029 22/19 A3019 RMK AO2 T02170189
KDCA 211552Z 17011KT 10SM SCT024 OVC030 22/18 A3021 RMK AO2 RAE01 SLP229 P0000 T02170183
KDCA 211529Z 18012KT 10SM SCT024 OVC032 22/18 A3022 RMK AO2 RAE01 P0000 T02170183
KDCA 211452Z 18011KT 10SM -RA FEW007 SCT018 OVC026 21/18 A3023 RMK AO2 SLP235 P0008 60028 T02060183 58004   
KDCA 211426Z 18009KT 6SM -RA BR FEW007 BKN032 OVC046 21/19 A3024 RMK AO2 P0008 T02060189
KDCA 211443Z 17009KT 10SM -RA FEW007 BKN028 OVC034 21/19 A3023 RMK AO2 P0008 T02060189
KDCA 211409Z 19011KT 2 1/2SM RA BR SCT007 BKN015 OVC047 20/18 A3023 RMK AO2 P0006 T02000183
KDCA 211416Z 19009KT 4SM -RA BR SCT007 BKN019 OVC045 20/18 A3024 RMK AO2 P0007 T02000183
KDCA 211359Z 19007KT 1 1/2SM R01/4500VP6000FT RA BR BKN007 BKN016 OVC025 20/19 A3023 RMK AO2 P0004 T02000189
KDCA 211352Z 20005KT 1SM R01/4000V5500FT +RA BR SCT007 BKN018 OVC041 20/18 A3023 RMK AO2 SLP238 P0020 T02000183 
KDCA 211326Z 20008KT 2SM R01/5000VP6000FT RA BR FEW014 BKN032 OVC039 20/18 A3024 RMK AO2 P0004 T02000178
KDCA 211330Z 20006KT 1 1/2SM R01/5000V5500FT RA BR FEW018 BKN030 OVC039 20/18 A3024 RMK AO2 P0006 T02000178
KDCA 211306Z 20012KT 7SM -RA SCT015 BKN024 OVC035 21/18 A3024 RMK AO2 P0000 T02110178
KDCA 211314Z 20009KT 3SM R01/5500VP6000FT RA FEW014 OVC033 21/18 A3024 RMK AO2 P0001 T02060178
KDCA 211345Z 20007KT 1SM R01/4000V5500FT +RA BR FEW004 BKN029 OVC039 20/18 A3023 RMK AO2 P0015 T02000183
KDCA 211252Z 18008KT 10SM -RA FEW015 SCT023 OVC037 22/19 A3024 RMK AO2 RAB50 SLP240 P0000 T02170189 
KDCA 211210Z 15005KT 10SM FEW020 OVC038 22/19 A3024 RMK AO2 T02170189
KDCA 211152Z 14006KT 10SM BKN020 OVC035 22/19 A3024 RMK AO2 RAB24E37 SLP239 P0000 60000 T02170189 10222 20217 51007 
KDCA 211109Z 15005KT 10SM BKN020 OVC039 22/19 A3024 RMK AO2 T02170189
KDCA 211052Z 17006KT 10SM SCT020 OVC037 22/19 A3023 RMK AO2 RAB23E34 SLP237 P0000 T02170189 
KDCA 211028Z 16006KT 10SM -RA SCT016 OVC037 22/19 A3023 RMK AO2 RAB23 P0000 T02170189
KDCA 211001Z 18006KT 10SM BKN018 OVC039 22/19 A3023 RMK AO2 T02170189
KDCA 210952Z 18006KT 10SM SCT020 OVC039 22/19 A3023 RMK AO2 SLP236 T02170189
KDCA 210926Z 18006KT 10SM SCT016 OVC038 22/19 A3022 RMK AO2 T02170189
KDCA 210852Z 19008KT 10SM BKN018 OVC040 22/18 A3022 RMK AO2 SLP232 T02220183 55001  
KDCA 210752Z 18007KT 10SM OVC038 22/18 A3021 RMK AO2 SLP230 T02220183   
KDCA 210652Z 18007KT 10SM SCT016 OVC040 22/19 A3022 RMK AO2 SLP232 T02220189